sensor_id;sensor_type;location;lat;lon;timestamp;temperature;humidity
38582;DHT22;24349;53.720;10.014;2023-07-13T00:00:13;16.30;99.90
38582;DHT22;24349;53.720;10.014;2023-07-13T00:02:42;16.30;99.90
38582;DHT22;24349;53.720;10.014;2023-07-13T00:05:08;16.30;99.90
38582;DHT22;24349;53.720;10.014;2023-07-13T00:07:34;16.20;99.90
38582;DHT22;24349;53.720;10.014;2023-07-13T00:10:00;16.10;99.90
38582;DHT22;24349;53.720;10.014;2023-07-13T00:12:36;16.00;99.90
38582;DHT22;24349;53.720;10.014;2023-07-13T00:15:06;15.90;99.90
38582;DHT22;24349;53.720;10.014;2023-07-13T00:17:32;15.80;99.90
38582;DHT22;24349;53.720;10.014;2023-07-13T00:19:58;15.70;99.90
38582;DHT22;24349;53.720;10.014;2023-07-13T00:22:24;15.70;99.90
38582;DHT22;24349;53.720;10.014;2023-07-13T00:24:52;15.60;99.90
38582;DHT22;24349;53.720;10.014;2023-07-13T00:27:19;15.60;99.90
38582;DHT22;24349;53.720;10.014;2023-07-13T00:29:44;15.50;99.90
38582;DHT22;24349;53.720;10.014;2023-07-13T00:32:10;15.50;99.90
38582;DHT22;24349;53.720;10.014;2023-07-13T00:34:37;15.50;99.90
38582;DHT22;24349;53.720;10.014;2023-07-13T00:37:04;15.50;99.90
38582;DHT22;24349;53.720;10.014;2023-07-13T00:39:32;15.40;99.90
38582;DHT22;24349;53.720;10.014;2023-07-13T00:41:59;15.40;99.90
38582;DHT22;24349;53.720;10.014;2023-07-13T00:44:25;15.30;99.90
38582;DHT22;24349;53.720;10.014;2023-07-13T00:46:51;15.20;99.90
38582;DHT22;24349;53.720;10.014;2023-07-13T00:49:20;15.20;99.90
38582;DHT22;24349;53.720;10.014;2023-07-13T00:51:56;15.20;99.90
38582;DHT22;24349;53.720;10.014;2023-07-13T00:54:26;15.20;99.90
38582;DHT22;24349;53.720;10.014;2023-07-13T00:56:55;15.20;99.90
38582;DHT22;24349;53.720;10.014;2023-07-13T00:59:22;15.20;99.90
38582;DHT22;24349;53.720;10.014;2023-07-13T01:01:49;15.20;99.90
38582;DHT22;24349;53.720;10.014;2023-07-13T01:04:16;15.20;99.90
38582;DHT22;24349;53.720;10.014;2023-07-13T01:06:42;15.20;99.90
38582;DHT22;24349;53.720;10.014;2023-07-13T01:09:10;15.20;99.90
38582;DHT22;24349;53.720;10.014;2023-07-13T01:11:36;15.20;99.90
38582;DHT22;24349;53.720;10.014;2023-07-13T01:14:03;15.20;99.90
38582;DHT22;24349;53.720;10.014;2023-07-13T01:16:32;15.20;99.90
38582;DHT22;24349;53.720;10.014;2023-07-13T01:18:58;15.30;99.90
38582;DHT22;24349;53.720;10.014;2023-07-13T01:21:25;15.30;99.90
38582;DHT22;24349;53.720;10.014;2023-07-13T01:23:51;15.20;99.90
38582;DHT22;24349;53.720;10.014;2023-07-13T01:26:17;15.20;99.90
38582;DHT22;24349;53.720;10.014;2023-07-13T01:28:42;15.20;99.90
38582;DHT22;24349;53.720;10.014;2023-07-13T01:31:09;15.30;99.90
38582;DHT22;24349;53.720;10.014;2023-07-13T01:33:37;15.30;99.90
38582;DHT22;24349;53.720;10.014;2023-07-13T01:36:05;15.30;99.90
38582;DHT22;24349;53.720;10.014;2023-07-13T01:38:32;15.30;99.90
38582;DHT22;24349;53.720;10.014;2023-07-13T01:40:58;15.30;99.90
38582;DHT22;24349;53.720;10.014;2023-07-13T01:43:33;15.20;99.90
38582;DHT22;24349;53.720;10.014;2023-07-13T01:45:59;15.20;99.90
38582;DHT22;24349;53.720;10.014;2023-07-13T01:48:24;15.20;99.90
38582;DHT22;24349;53.720;10.014;2023-07-13T01:50:50;15.20;99.90
38582;DHT22;24349;53.720;10.014;2023-07-13T01:53:15;15.20;99.90
38582;DHT22;24349;53.720;10.014;2023-07-13T01:55:41;15.20;99.90
38582;DHT22;24349;53.720;10.014;2023-07-13T01:58:07;15.20;99.90
38582;DHT22;24349;53.720;10.014;2023-07-13T02:00:33;15.20;99.90
38582;DHT22;24349;53.720;10.014;2023-07-13T02:02:59;15.20;99.90
38582;DHT22;24349;53.720;10.014;2023-07-13T02:05:25;15.20;99.90
38582;DHT22;24349;53.720;10.014;2023-07-13T02:07:51;15.10;99.90
38582;DHT22;24349;53.720;10.014;2023-07-13T02:10:18;15.10;99.90
38582;DHT22;24349;53.720;10.014;2023-07-13T02:12:44;15.10;99.90
38582;DHT22;24349;53.720;10.014;2023-07-13T02:15:10;15.10;99.90
38582;DHT22;24349;53.720;10.014;2023-07-13T02:17:36;15.10;99.90
38582;DHT22;24349;53.720;10.014;2023-07-13T02:20:03;15.10;99.90
38582;DHT22;24349;53.720;10.014;2023-07-13T02:22:30;15.20;99.90
38582;DHT22;24349;53.720;10.014;2023-07-13T02:24:55;15.10;99.90
38582;DHT22;24349;53.720;10.014;2023-07-13T02:27:21;15.10;99.90
38582;DHT22;24349;53.720;10.014;2023-07-13T02:29:46;15.10;99.90
38582;DHT22;24349;53.720;10.014;2023-07-13T02:32:12;15.10;99.90
38582;DHT22;24349;53.720;10.014;2023-07-13T02:34:40;15.10;99.90
38582;DHT22;24349;53.720;10.014;2023-07-13T02:37:07;15.00;99.90
38582;DHT22;24349;53.720;10.014;2023-07-13T02:39:32;15.00;99.90
38582;DHT22;24349;53.720;10.014;2023-07-13T02:41:59;15.00;99.90
38582;DHT22;24349;53.720;10.014;2023-07-13T02:44:25;15.00;99.90
38582;DHT22;24349;53.720;10.014;2023-07-13T02:46:50;15.00;99.90
38582;DHT22;24349;53.720;10.014;2023-07-13T02:49:16;14.90;99.90
38582;DHT22;24349;53.720;10.014;2023-07-13T02:51:41;14.90;99.90
38582;DHT22;24349;53.720;10.014;2023-07-13T02:54:07;14.90;99.90
38582;DHT22;24349;53.720;10.014;2023-07-13T02:56:34;14.90;99.90
38582;DHT22;24349;53.720;10.014;2023-07-13T02:58:59;14.80;99.90
38582;DHT22;24349;53.720;10.014;2023-07-13T03:01:25;14.90;99.90
38582;DHT22;24349;53.720;10.014;2023-07-13T03:03:52;14.80;99.90
38582;DHT22;24349;53.720;10.014;2023-07-13T03:06:18;14.90;99.90
38582;DHT22;24349;53.720;10.014;2023-07-13T03:08:44;14.80;99.90
38582;DHT22;24349;53.720;10.014;2023-07-13T03:11:16;14.80;99.90
38582;DHT22;24349;53.720;10.014;2023-07-13T03:13:42;14.80;99.90
38582;DHT22;24349;53.720;10.014;2023-07-13T03:16:10;14.80;99.90
38582;DHT22;24349;53.720;10.014;2023-07-13T03:18:36;14.80;99.90
38582;DHT22;24349;53.720;10.014;2023-07-13T03:21:02;14.80;99.90
38582;DHT22;24349;53.720;10.014;2023-07-13T03:23:28;14.80;99.90
38582;DHT22;24349;53.720;10.014;2023-07-13T03:26:11;14.80;99.90
38582;DHT22;24349;53.720;10.014;2023-07-13T03:28:38;14.80;99.90
38582;DHT22;24349;53.720;10.014;2023-07-13T03:31:09;14.80;99.90
38582;DHT22;24349;53.720;10.014;2023-07-13T03:33:36;14.80;99.90
38582;DHT22;24349;53.720;10.014;2023-07-13T03:36:03;14.80;99.90
38582;DHT22;24349;53.720;10.014;2023-07-13T03:38:29;14.80;99.90
38582;DHT22;24349;53.720;10.014;2023-07-13T03:40:55;14.80;99.90
38582;DHT22;24349;53.720;10.014;2023-07-13T03:43:20;14.80;99.90
38582;DHT22;24349;53.720;10.014;2023-07-13T03:45:46;14.80;99.90
38582;DHT22;24349;53.720;10.014;2023-07-13T03:48:12;14.80;99.90
38582;DHT22;24349;53.720;10.014;2023-07-13T03:50:38;14.80;99.90
38582;DHT22;24349;53.720;10.014;2023-07-13T03:53:04;14.80;99.90
38582;DHT22;24349;53.720;10.014;2023-07-13T03:55:30;14.80;99.90
38582;DHT22;24349;53.720;10.014;2023-07-13T03:58:34;14.80;99.90
38582;DHT22;24349;53.720;10.014;2023-07-13T04:01:00;14.70;99.90
38582;DHT22;24349;53.720;10.014;2023-07-13T04:03:27;14.70;99.90
38582;DHT22;24349;53.720;10.014;2023-07-13T04:05:56;14.80;99.90
38582;DHT22;24349;53.720;10.014;2023-07-13T04:08:30;14.80;99.90
38582;DHT22;24349;53.720;10.014;2023-07-13T04:10:57;14.80;99.90
38582;DHT22;24349;53.720;10.014;2023-07-13T04:13:24;14.90;99.90
38582;DHT22;24349;53.720;10.014;2023-07-13T04:15:50;14.90;99.90
38582;DHT22;24349;53.720;10.014;2023-07-13T04:18:16;14.90;99.90
38582;DHT22;24349;53.720;10.014;2023-07-13T04:20:42;14.90;99.90
38582;DHT22;24349;53.720;10.014;2023-07-13T04:23:07;15.00;99.90
38582;DHT22;24349;53.720;10.014;2023-07-13T04:25:33;15.00;99.90
38582;DHT22;24349;53.720;10.014;2023-07-13T04:27:59;15.10;99.90
38582;DHT22;24349;53.720;10.014;2023-07-13T04:30:25;15.10;99.90
38582;DHT22;24349;53.720;10.014;2023-07-13T04:32:51;15.20;99.90
38582;DHT22;24349;53.720;10.014;2023-07-13T04:35:20;15.20;99.90
38582;DHT22;24349;53.720;10.014;2023-07-13T04:37:50;15.20;99.90
38582;DHT22;24349;53.720;10.014;2023-07-13T04:40:19;15.30;99.90
38582;DHT22;24349;53.720;10.014;2023-07-13T04:42:45;15.20;99.90
38582;DHT22;24349;53.720;10.014;2023-07-13T04:45:12;15.30;99.90
38582;DHT22;24349;53.720;10.014;2023-07-13T04:47:38;15.30;99.90
38582;DHT22;24349;53.720;10.014;2023-07-13T04:50:04;15.30;99.90
38582;DHT22;24349;53.720;10.014;2023-07-13T04:52:30;15.40;99.90
38582;DHT22;24349;53.720;10.014;2023-07-13T04:54:55;15.40;99.90
38582;DHT22;24349;53.720;10.014;2023-07-13T04:57:21;15.40;99.90
38582;DHT22;24349;53.720;10.014;2023-07-13T04:59:46;15.50;99.90
38582;DHT22;24349;53.720;10.014;2023-07-13T05:02:12;15.60;99.90
38582;DHT22;24349;53.720;10.014;2023-07-13T05:04:38;15.70;99.90
38582;DHT22;24349;53.720;10.014;2023-07-13T05:07:04;15.90;99.90
38582;DHT22;24349;53.720;10.014;2023-07-13T05:09:30;16.00;99.90
38582;DHT22;24349;53.720;10.014;2023-07-13T05:11:56;16.00;99.90
38582;DHT22;24349;53.720;10.014;2023-07-13T05:14:21;16.20;99.90
38582;DHT22;24349;53.720;10.014;2023-07-13T05:16:47;16.40;99.90
38582;DHT22;24349;53.720;10.014;2023-07-13T05:19:13;16.50;99.90
38582;DHT22;24349;53.720;10.014;2023-07-13T05:21:38;16.70;99.90
38582;DHT22;24349;53.720;10.014;2023-07-13T05:24:04;16.80;99.90
38582;DHT22;24349;53.720;10.014;2023-07-13T05:26:30;16.80;99.90
38582;DHT22;24349;53.720;10.014;2023-07-13T05:28:56;16.90;99.90
38582;DHT22;24349;53.720;10.014;2023-07-13T05:31:21;17.00;99.90
38582;DHT22;24349;53.720;10.014;2023-07-13T05:33:47;17.10;99.90
38582;DHT22;24349;53.720;10.014;2023-07-13T05:36:12;17.10;99.90
38582;DHT22;24349;53.720;10.014;2023-07-13T05:38:38;17.10;99.90
38582;DHT22;24349;53.720;10.014;2023-07-13T05:41:04;17.10;99.90
38582;DHT22;24349;53.720;10.014;2023-07-13T05:43:29;17.10;99.90
38582;DHT22;24349;53.720;10.014;2023-07-13T05:45:56;17.20;99.90
38582;DHT22;24349;53.720;10.014;2023-07-13T05:48:22;17.10;99.90
38582;DHT22;24349;53.720;10.014;2023-07-13T05:50:47;17.10;99.90
38582;DHT22;24349;53.720;10.014;2023-07-13T05:53:13;17.00;99.90
38582;DHT22;24349;53.720;10.014;2023-07-13T05:55:46;17.00;99.90
38582;DHT22;24349;53.720;10.014;2023-07-13T05:58:13;16.90;99.90
38582;DHT22;24349;53.720;10.014;2023-07-13T06:00:39;16.90;99.90
38582;DHT22;24349;53.720;10.014;2023-07-13T06:03:06;16.90;99.90
38582;DHT22;24349;53.720;10.014;2023-07-13T06:05:32;16.80;99.90
38582;DHT22;24349;53.720;10.014;2023-07-13T06:07:59;16.80;99.90
38582;DHT22;24349;53.720;10.014;2023-07-13T06:10:24;16.80;99.90
38582;DHT22;24349;53.720;10.014;2023-07-13T06:12:50;16.80;99.90
38582;DHT22;24349;53.720;10.014;2023-07-13T06:15:16;16.90;99.90
38582;DHT22;24349;53.720;10.014;2023-07-13T06:17:41;16.80;99.90
38582;DHT22;24349;53.720;10.014;2023-07-13T06:20:07;16.90;99.90
38582;DHT22;24349;53.720;10.014;2023-07-13T06:22:33;17.00;99.90
38582;DHT22;24349;53.720;10.014;2023-07-13T06:24:58;17.00;99.90
38582;DHT22;24349;53.720;10.014;2023-07-13T06:27:24;17.00;99.90
38582;DHT22;24349;53.720;10.014;2023-07-13T06:29:50;17.00;99.90
38582;DHT22;24349;53.720;10.014;2023-07-13T06:32:16;17.00;99.90
38582;DHT22;24349;53.720;10.014;2023-07-13T06:34:41;17.00;99.90
38582;DHT22;24349;53.720;10.014;2023-07-13T06:37:07;17.00;99.90
38582;DHT22;24349;53.720;10.014;2023-07-13T06:39:32;17.10;99.90
38582;DHT22;24349;53.720;10.014;2023-07-13T06:41:58;17.20;99.90
38582;DHT22;24349;53.720;10.014;2023-07-13T06:44:24;17.30;99.90
38582;DHT22;24349;53.720;10.014;2023-07-13T06:46:49;17.50;99.90
38582;DHT22;24349;53.720;10.014;2023-07-13T06:49:15;17.50;99.90
38582;DHT22;24349;53.720;10.014;2023-07-13T06:51:40;17.60;99.90
38582;DHT22;24349;53.720;10.014;2023-07-13T06:54:06;17.60;99.90
38582;DHT22;24349;53.720;10.014;2023-07-13T06:56:32;17.70;99.90
38582;DHT22;24349;53.720;10.014;2023-07-13T06:58:57;17.90;99.90
38582;DHT22;24349;53.720;10.014;2023-07-13T07:01:23;17.90;99.90
38582;DHT22;24349;53.720;10.014;2023-07-13T07:03:48;18.10;99.90
38582;DHT22;24349;53.720;10.014;2023-07-13T07:06:20;18.10;99.90
38582;DHT22;24349;53.720;10.014;2023-07-13T07:08:47;18.30;99.90
38582;DHT22;24349;53.720;10.014;2023-07-13T07:11:14;18.50;99.90
38582;DHT22;24349;53.720;10.014;2023-07-13T07:13:40;18.60;99.90
38582;DHT22;24349;53.720;10.014;2023-07-13T07:16:06;18.60;99.90
38582;DHT22;24349;53.720;10.014;2023-07-13T07:18:32;18.50;99.90
38582;DHT22;24349;53.720;10.014;2023-07-13T07:20:57;18.80;99.90
38582;DHT22;24349;53.720;10.014;2023-07-13T07:23:23;19.00;99.90
38582;DHT22;24349;53.720;10.014;2023-07-13T07:25:49;19.30;99.90
38582;DHT22;24349;53.720;10.014;2023-07-13T07:28:16;19.20;99.90
38582;DHT22;24349;53.720;10.014;2023-07-13T07:30:45;19.10;99.90
38582;DHT22;24349;53.720;10.014;2023-07-13T07:33:11;19.10;99.90
38582;DHT22;24349;53.720;10.014;2023-07-13T07:35:36;19.70;99.90
38582;DHT22;24349;53.720;10.014;2023-07-13T07:38:02;20.60;99.90
38582;DHT22;24349;53.720;10.014;2023-07-13T07:40:28;20.90;99.90
38582;DHT22;24349;53.720;10.014;2023-07-13T07:42:54;20.50;99.90
38582;DHT22;24349;53.720;10.014;2023-07-13T07:45:20;20.60;99.90
38582;DHT22;24349;53.720;10.014;2023-07-13T07:47:46;20.80;99.90
38582;DHT22;24349;53.720;10.014;2023-07-13T07:50:12;21.10;99.90
38582;DHT22;24349;53.720;10.014;2023-07-13T07:52:38;21.60;99.90
38582;DHT22;24349;53.720;10.014;2023-07-13T07:55:05;21.70;99.90
38582;DHT22;24349;53.720;10.014;2023-07-13T07:57:31;21.90;99.90
38582;DHT22;24349;53.720;10.014;2023-07-13T07:59:56;21.90;99.90
38582;DHT22;24349;53.720;10.014;2023-07-13T08:02:22;21.80;99.90
38582;DHT22;24349;53.720;10.014;2023-07-13T08:04:47;21.30;99.90
38582;DHT22;24349;53.720;10.014;2023-07-13T08:07:13;21.20;99.90
38582;DHT22;24349;53.720;10.014;2023-07-13T08:09:39;20.90;99.90
38582;DHT22;24349;53.720;10.014;2023-07-13T08:12:05;21.00;99.90
38582;DHT22;24349;53.720;10.014;2023-07-13T08:14:30;21.00;99.90
38582;DHT22;24349;53.720;10.014;2023-07-13T08:16:56;20.80;99.90
38582;DHT22;24349;53.720;10.014;2023-07-13T08:19:21;20.60;99.90
38582;DHT22;24349;53.720;10.014;2023-07-13T08:21:47;20.70;99.90
38582;DHT22;24349;53.720;10.014;2023-07-13T08:24:14;20.70;99.90
38582;DHT22;24349;53.720;10.014;2023-07-13T08:26:40;20.40;99.90
38582;DHT22;24349;53.720;10.014;2023-07-13T08:29:05;20.50;99.90
38582;DHT22;24349;53.720;10.014;2023-07-13T08:31:31;20.40;99.90
38582;DHT22;24349;53.720;10.014;2023-07-13T08:33:57;20.50;99.90
38582;DHT22;24349;53.720;10.014;2023-07-13T08:36:22;20.70;99.90
38582;DHT22;24349;53.720;10.014;2023-07-13T08:38:48;20.70;99.90
38582;DHT22;24349;53.720;10.014;2023-07-13T08:41:18;20.40;99.90
38582;DHT22;24349;53.720;10.014;2023-07-13T08:43:58;19.90;99.90
38582;DHT22;24349;53.720;10.014;2023-07-13T08:48:56;20.50;99.90
38582;DHT22;24349;53.720;10.014;2023-07-13T08:51:28;20.60;99.90
38582;DHT22;24349;53.720;10.014;2023-07-13T08:54:01;20.70;99.90
38582;DHT22;24349;53.720;10.014;2023-07-13T08:56:29;20.80;99.90
38582;DHT22;24349;53.720;10.014;2023-07-13T08:59:05;21.10;99.90
38582;DHT22;24349;53.720;10.014;2023-07-13T09:04:35;21.40;99.90
38582;DHT22;24349;53.720;10.014;2023-07-13T09:07:30;21.20;99.90
38582;DHT22;24349;53.720;10.014;2023-07-13T09:15:31;21.60;99.90
38582;DHT22;24349;53.720;10.014;2023-07-13T09:18:11;21.10;99.90
38582;DHT22;24349;53.720;10.014;2023-07-13T09:20:56;20.90;99.90
38582;DHT22;24349;53.720;10.014;2023-07-13T09:23:24;20.70;99.90
38582;DHT22;24349;53.720;10.014;2023-07-13T09:26:04;20.50;99.90
38582;DHT22;24349;53.720;10.014;2023-07-13T09:28:36;20.40;99.90
38582;DHT22;24349;53.720;10.014;2023-07-13T09:31:11;20.80;99.90
38582;DHT22;24349;53.720;10.014;2023-07-13T09:33:39;21.10;99.90
38582;DHT22;24349;53.720;10.014;2023-07-13T09:36:23;21.50;99.90
38582;DHT22;24349;53.720;10.014;2023-07-13T09:39:05;22.30;99.90
38582;DHT22;24349;53.720;10.014;2023-07-13T09:44:50;22.40;99.90
38582;DHT22;24349;53.720;10.014;2023-07-13T09:47:19;22.60;99.90
38582;DHT22;24349;53.720;10.014;2023-07-13T09:49:48;22.60;99.90
38582;DHT22;24349;53.720;10.014;2023-07-13T09:52:18;22.10;99.90
38582;DHT22;24349;53.720;10.014;2023-07-13T09:54:48;22.10;99.90
38582;DHT22;24349;53.720;10.014;2023-07-13T09:57:17;22.20;99.90
38582;DHT22;24349;53.720;10.014;2023-07-13T09:59:47;22.20;99.90
38582;DHT22;24349;53.720;10.014;2023-07-13T10:02:34;22.20;99.90
38582;DHT22;24349;53.720;10.014;2023-07-13T10:05:05;21.90;99.90
38582;DHT22;24349;53.720;10.014;2023-07-13T10:07:38;21.90;99.90
38582;DHT22;24349;53.720;10.014;2023-07-13T10:10:15;22.10;99.90
38582;DHT22;24349;53.720;10.014;2023-07-13T10:12:40;22.60;99.90
38582;DHT22;24349;53.720;10.014;2023-07-13T10:15:21;22.80;99.90
38582;DHT22;24349;53.720;10.014;2023-07-13T10:17:49;23.00;99.90
38582;DHT22;24349;53.720;10.014;2023-07-13T10:20:16;22.70;99.90
38582;DHT22;24349;53.720;10.014;2023-07-13T10:23:04;23.00;99.90
38582;DHT22;24349;53.720;10.014;2023-07-13T10:25:38;22.90;99.90
38582;DHT22;24349;53.720;10.014;2023-07-13T10:30:53;23.40;99.90
38582;DHT22;24349;53.720;10.014;2023-07-13T10:33:19;23.10;99.90
38582;DHT22;24349;53.720;10.014;2023-07-13T10:35:47;23.20;99.90
38582;DHT22;24349;53.720;10.014;2023-07-13T10:38:20;23.70;99.90
38582;DHT22;24349;53.720;10.014;2023-07-13T10:43:24;23.80;99.90
38582;DHT22;24349;53.720;10.014;2023-07-13T10:45:52;23.20;99.90
38582;DHT22;24349;53.720;10.014;2023-07-13T10:48:21;23.10;99.90
38582;DHT22;24349;53.720;10.014;2023-07-13T10:50:49;22.80;99.90
38582;DHT22;24349;53.720;10.014;2023-07-13T10:53:32;22.60;99.90
38582;DHT22;24349;53.720;10.014;2023-07-13T10:56:01;22.40;99.90
38582;DHT22;24349;53.720;10.014;2023-07-13T10:58:36;22.70;99.90
38582;DHT22;24349;53.720;10.014;2023-07-13T11:01:10;22.70;99.90
38582;DHT22;24349;53.720;10.014;2023-07-13T11:04:00;22.30;99.90
38582;DHT22;24349;53.720;10.014;2023-07-13T11:08:57;21.90;99.90
38582;DHT22;24349;53.720;10.014;2023-07-13T11:18:51;22.80;99.90
38582;DHT22;24349;53.720;10.014;2023-07-13T11:21:26;23.20;99.90
38582;DHT22;24349;53.720;10.014;2023-07-13T11:24:01;22.90;99.90
38582;DHT22;24349;53.720;10.014;2023-07-13T11:26:43;22.40;99.90
38582;DHT22;24349;53.720;10.014;2023-07-13T11:31:58;21.60;99.90
38582;DHT22;24349;53.720;10.014;2023-07-13T11:34:35;21.20;99.90
38582;DHT22;24349;53.720;10.014;2023-07-13T11:37:02;20.60;99.90
38582;DHT22;24349;53.720;10.014;2023-07-13T11:39:40;20.50;99.90
38582;DHT22;24349;53.720;10.014;2023-07-13T11:42:13;20.80;99.90
38582;DHT22;24349;53.720;10.014;2023-07-13T11:44:50;21.60;99.90
38582;DHT22;24349;53.720;10.014;2023-07-13T11:47:23;22.50;99.90
38582;DHT22;24349;53.720;10.014;2023-07-13T11:49:54;22.80;99.90
38582;DHT22;24349;53.720;10.014;2023-07-13T11:52:28;23.20;99.90
38582;DHT22;24349;53.720;10.014;2023-07-13T11:54:57;23.80;99.90
38582;DHT22;24349;53.720;10.014;2023-07-13T11:57:29;24.10;99.90
38582;DHT22;24349;53.720;10.014;2023-07-13T11:59:58;24.30;99.90
38582;DHT22;24349;53.720;10.014;2023-07-13T12:02:33;23.40;99.90
38582;DHT22;24349;53.720;10.014;2023-07-13T12:05:00;21.80;99.90
38582;DHT22;24349;53.720;10.014;2023-07-13T12:07:32;21.00;99.90
38582;DHT22;24349;53.720;10.014;2023-07-13T12:10:18;20.50;99.90
38582;DHT22;24349;53.720;10.014;2023-07-13T12:12:55;19.90;99.90
38582;DHT22;24349;53.720;10.014;2023-07-13T12:15:22;19.30;99.90
38582;DHT22;24349;53.720;10.014;2023-07-13T12:17:49;18.90;99.90
38582;DHT22;24349;53.720;10.014;2023-07-13T12:20:26;18.70;99.90
38582;DHT22;24349;53.720;10.014;2023-07-13T12:22:52;18.40;99.90
38582;DHT22;24349;53.720;10.014;2023-07-13T12:25:19;18.30;99.90
38582;DHT22;24349;53.720;10.014;2023-07-13T12:27:50;18.10;99.90
38582;DHT22;24349;53.720;10.014;2023-07-13T12:30:32;18.00;99.90
38582;DHT22;24349;53.720;10.014;2023-07-13T12:33:08;18.00;99.90
38582;DHT22;24349;53.720;10.014;2023-07-13T12:35:46;18.00;99.90
38582;DHT22;24349;53.720;10.014;2023-07-13T12:38:13;17.80;99.90
38582;DHT22;24349;53.720;10.014;2023-07-13T12:40:39;17.70;99.90
38582;DHT22;24349;53.720;10.014;2023-07-13T12:43:11;17.40;99.90
38582;DHT22;24349;53.720;10.014;2023-07-13T12:45:38;17.40;99.90
38582;DHT22;24349;53.720;10.014;2023-07-13T12:48:19;17.50;99.90
38582;DHT22;24349;53.720;10.014;2023-07-13T12:50:49;17.80;99.90
38582;DHT22;24349;53.720;10.014;2023-07-13T12:53:37;18.50;99.90
38582;DHT22;24349;53.720;10.014;2023-07-13T12:56:05;19.20;99.90
38582;DHT22;24349;53.720;10.014;2023-07-13T12:58:39;19.90;99.90
38582;DHT22;24349;53.720;10.014;2023-07-13T13:01:07;19.90;99.90
38582;DHT22;24349;53.720;10.014;2023-07-13T13:03:35;20.00;99.90
38582;DHT22;24349;53.720;10.014;2023-07-13T13:06:25;20.30;99.90
38582;DHT22;24349;53.720;10.014;2023-07-13T13:08:54;20.20;99.90
38582;DHT22;24349;53.720;10.014;2023-07-13T13:11:22;20.20;99.90
38582;DHT22;24349;53.720;10.014;2023-07-13T13:13:49;20.30;99.90
38582;DHT22;24349;53.720;10.014;2023-07-13T13:16:33;20.00;99.90
38582;DHT22;24349;53.720;10.014;2023-07-13T13:19:13;19.60;99.90
38582;DHT22;24349;53.720;10.014;2023-07-13T13:21:39;19.50;99.90
38582;DHT22;24349;53.720;10.014;2023-07-13T13:24:14;19.20;99.90
38582;DHT22;24349;53.720;10.014;2023-07-13T13:26:40;19.20;99.90
38582;DHT22;24349;53.720;10.014;2023-07-13T13:29:13;19.30;99.90
38582;DHT22;24349;53.720;10.014;2023-07-13T13:31:39;19.30;99.90
38582;DHT22;24349;53.720;10.014;2023-07-13T13:34:11;19.50;99.90
38582;DHT22;24349;53.720;10.014;2023-07-13T13:36:37;19.70;99.90
38582;DHT22;24349;53.720;10.014;2023-07-13T13:41:53;19.80;99.90
38582;DHT22;24349;53.720;10.014;2023-07-13T13:44:20;20.30;99.90
38582;DHT22;24349;53.720;10.014;2023-07-13T13:46:48;20.10;99.90
38582;DHT22;24349;53.720;10.014;2023-07-13T13:49:17;20.20;99.90
38582;DHT22;24349;53.720;10.014;2023-07-13T13:51:44;20.10;99.90
38582;DHT22;24349;53.720;10.014;2023-07-13T13:54:15;20.30;99.90
38582;DHT22;24349;53.720;10.014;2023-07-13T13:56:45;20.30;99.90
38582;DHT22;24349;53.720;10.014;2023-07-13T13:59:11;20.20;99.90
38582;DHT22;24349;53.720;10.014;2023-07-13T14:01:38;20.00;99.90
38582;DHT22;24349;53.720;10.014;2023-07-13T14:04:05;19.80;99.90
38582;DHT22;24349;53.720;10.014;2023-07-13T14:06:32;19.70;99.90
38582;DHT22;24349;53.720;10.014;2023-07-13T14:09:00;19.50;99.90
38582;DHT22;24349;53.720;10.014;2023-07-13T14:11:26;19.60;99.90
38582;DHT22;24349;53.720;10.014;2023-07-13T14:13:55;19.60;99.90
38582;DHT22;24349;53.720;10.014;2023-07-13T14:16:23;20.00;99.90
38582;DHT22;24349;53.720;10.014;2023-07-13T14:18:53;20.60;99.90
38582;DHT22;24349;53.720;10.014;2023-07-13T14:21:21;21.50;99.90
38582;DHT22;24349;53.720;10.014;2023-07-13T14:23:47;21.30;99.90
38582;DHT22;24349;53.720;10.014;2023-07-13T14:26:19;21.00;99.90
38582;DHT22;24349;53.720;10.014;2023-07-13T14:28:47;21.10;99.90
38582;DHT22;24349;53.720;10.014;2023-07-13T14:31:15;21.20;99.90
38582;DHT22;24349;53.720;10.014;2023-07-13T14:33:42;21.20;99.90
38582;DHT22;24349;53.720;10.014;2023-07-13T14:36:28;21.00;99.90
38582;DHT22;24349;53.720;10.014;2023-07-13T14:38:55;20.90;99.90
38582;DHT22;24349;53.720;10.014;2023-07-13T14:41:21;21.20;99.90
38582;DHT22;24349;53.720;10.014;2023-07-13T14:43:47;21.00;99.90
38582;DHT22;24349;53.720;10.014;2023-07-13T14:46:34;20.90;99.90
38582;DHT22;24349;53.720;10.014;2023-07-13T14:49:06;21.00;99.90
38582;DHT22;24349;53.720;10.014;2023-07-13T14:51:33;20.90;99.90
38582;DHT22;24349;53.720;10.014;2023-07-13T14:54:04;21.00;99.90
38582;DHT22;24349;53.720;10.014;2023-07-13T14:56:30;20.90;99.90
38582;DHT22;24349;53.720;10.014;2023-07-13T14:58:55;21.10;99.90
38582;DHT22;24349;53.720;10.014;2023-07-13T15:01:21;21.20;99.90
38582;DHT22;24349;53.720;10.014;2023-07-13T15:03:50;21.50;99.90
38582;DHT22;24349;53.720;10.014;2023-07-13T15:06:17;21.80;99.90
38582;DHT22;24349;53.720;10.014;2023-07-13T15:08:44;22.00;99.90
38582;DHT22;24349;53.720;10.014;2023-07-13T15:11:10;22.20;99.90
38582;DHT22;24349;53.720;10.014;2023-07-13T15:13:40;22.40;99.90
38582;DHT22;24349;53.720;10.014;2023-07-13T15:16:21;22.50;99.90
38582;DHT22;24349;53.720;10.014;2023-07-13T15:18:49;22.90;99.90
38582;DHT22;24349;53.720;10.014;2023-07-13T15:21:22;23.10;99.90
38582;DHT22;24349;53.720;10.014;2023-07-13T15:23:48;22.90;99.90
38582;DHT22;24349;53.720;10.014;2023-07-13T15:26:16;22.60;99.90
38582;DHT22;24349;53.720;10.014;2023-07-13T15:28:43;22.80;99.90
38582;DHT22;24349;53.720;10.014;2023-07-13T15:31:24;22.60;99.90
38582;DHT22;24349;53.720;10.014;2023-07-13T15:33:55;22.40;99.90
38582;DHT22;24349;53.720;10.014;2023-07-13T15:36:22;22.10;99.90
38582;DHT22;24349;53.720;10.014;2023-07-13T15:38:50;22.20;99.90
38582;DHT22;24349;53.720;10.014;2023-07-13T15:41:25;22.30;99.90
38582;DHT22;24349;53.720;10.014;2023-07-13T15:43:54;22.40;99.90
38582;DHT22;24349;53.720;10.014;2023-07-13T15:46:22;22.60;99.90
38582;DHT22;24349;53.720;10.014;2023-07-13T15:48:49;22.00;99.90
38582;DHT22;24349;53.720;10.014;2023-07-13T15:51:28;21.80;99.90
38582;DHT22;24349;53.720;10.014;2023-07-13T15:54:00;21.60;99.90
38582;DHT22;24349;53.720;10.014;2023-07-13T15:56:36;21.70;99.90
38582;DHT22;24349;53.720;10.014;2023-07-13T15:59:02;21.70;99.90